Terminal Aerodrome Forecast
Issued by NWS Pittsburgh, PA

Current Version | Previous Version | Graphics & Text | Print | Product List | Glossary On
Versions: 1 2 3 4 5 6 7 8 9 10 11 12 13 14 15 16 17 18 19 20 21 22 23 24 25 26 27 28 29 30 31 32 33 34
707
FTUS41 KPBZ 151749
TAFPIT
TAF
KPIT 151749Z 1518/1624 15007KT P6SM OVC060
     FM152200 15006KT 2SM -SN OVC025
     FM160400 17006KT 3SM -SN OVC015
     FM161000 21005KT 6SM -SN OVC008
     FM161500 24007KT P6SM OVC025
     FM161800 24007KT P6SM BKN035=

USA.gov is the U.S. government's official web portal to all federal, state and local government web resources and services.